createdAt,value
2017-11-01T00:00:15.354Z,21.10
2017-11-01T00:02:43.209Z,21.62
2017-11-01T00:05:10.889Z,21.92
2017-11-01T00:07:39.682Z,21.80
2017-11-01T00:10:07.304Z,23.00
2017-11-01T00:12:35.330Z,21.50
2017-11-01T00:15:03.260Z,21.77
2017-11-01T00:17:30.915Z,22.62
2017-11-01T00:20:01.051Z,22.27
2017-11-01T00:22:28.830Z,23.40
2017-11-01T00:24:56.549Z,23.07
2017-11-01T00:27:25.401Z,22.45
2017-11-01T00:29:54.219Z,25.30
2017-11-01T00:32:22.081Z,23.40
2017-11-01T00:34:50.633Z,24.12
2017-11-01T00:37:19.774Z,23.90
2017-11-01T00:39:47.428Z,23.48
2017-11-01T00:42:15.132Z,22.33
2017-11-01T00:44:43.796Z,24.70
2017-11-01T00:47:11.499Z,22.70
2017-11-01T00:49:39.473Z,24.08
2017-11-01T00:52:07.274Z,24.80
2017-11-01T00:54:34.930Z,22.60
2017-11-01T00:57:02.887Z,21.93
2017-11-01T00:59:33.844Z,19.83
2017-11-01T01:02:01.820Z,19.87
2017-11-01T01:04:29.879Z,18.25
2017-11-01T01:09:47.653Z,18.70
2017-11-01T01:12:16.209Z,16.85
2017-11-01T01:14:44.027Z,15.13
2017-11-01T01:17:11.784Z,15.65
2017-11-01T01:19:39.752Z,16.60
2017-11-01T01:22:18.317Z,15.20
2017-11-01T01:24:48.494Z,14.93
2017-11-01T01:27:16.237Z,12.98
2017-11-01T01:29:44.729Z,13.88
2017-11-01T01:32:12.427Z,12.98
2017-11-01T01:34:42.605Z,12.47
2017-11-01T01:37:10.362Z,12.82
2017-11-01T01:39:38.158Z,12.43
2017-11-01T01:42:06.076Z,11.40
2017-11-01T01:44:34.817Z,12.27
2017-11-01T01:47:02.570Z,13.20
2017-11-01T01:49:30.238Z,13.52
2017-11-01T01:55:11.141Z,11.85
2017-11-01T01:57:46.718Z,13.20
2017-11-01T02:00:34.214Z,12.80
2017-11-01T02:03:02.236Z,12.27
2017-11-01T02:05:29.849Z,12.67
2017-11-01T02:07:58.224Z,12.87
2017-11-01T02:12:59.838Z,11.63
2017-11-01T02:18:01.285Z,11.98
2017-11-01T02:20:29.395Z,12.70
2017-11-01T02:22:57.647Z,12.70
2017-11-01T02:25:25.349Z,12.93
2017-11-01T02:27:52.940Z,12.52
2017-11-01T02:30:20.797Z,12.93
2017-11-01T02:32:48.626Z,13.07
2017-11-01T02:35:16.394Z,12.40
2017-11-01T02:37:53.371Z,12.80
2017-11-01T02:40:21.427Z,13.15
2017-11-01T02:42:49.244Z,13.00
2017-11-01T02:45:17.261Z,13.15
2017-11-01T02:47:45.162Z,12.95
2017-11-01T02:50:12.895Z,12.77
2017-11-01T02:52:40.732Z,12.05
2017-11-01T02:55:08.529Z,13.02
2017-11-01T02:57:36.266Z,11.98
2017-11-01T03:00:04.024Z,11.43
2017-11-01T03:02:34.040Z,12.13
2017-11-01T03:05:01.736Z,12.05
2017-11-01T03:07:29.353Z,13.02
2017-11-01T03:09:56.992Z,12.80
2017-11-01T03:12:25.208Z,12.63
2017-11-01T03:14:52.905Z,11.73
2017-11-01T03:17:20.832Z,10.88
2017-11-01T03:19:49.466Z,11.25
2017-11-01T03:22:17.138Z,11.75
2017-11-01T03:24:45.874Z,12.27
2017-11-01T03:27:13.693Z,11.15
2017-11-01T03:29:41.569Z,11.18
2017-11-01T03:32:09.425Z,11.02
2017-11-01T03:34:37.121Z,11.70
2017-11-01T03:37:04.967Z,11.77
2017-11-01T03:39:32.677Z,11.00
2017-11-01T03:42:00.495Z,12.30
2017-11-01T03:44:28.351Z,11.73
2017-11-01T03:46:55.968Z,11.00
2017-11-01T03:49:26.171Z,10.75
2017-11-01T03:51:54.663Z,10.37
2017-11-01T03:54:23.799Z,11.45
2017-11-01T03:56:51.475Z,11.30
2017-11-01T03:59:19.193Z,10.60
2017-11-01T04:01:46.931Z,11.90
2017-11-01T04:04:14.667Z,11.85
2017-11-01T04:06:42.486Z,11.10
2017-11-01T04:09:10.167Z,11.30
2017-11-01T04:11:37.759Z,11.25
2017-11-01T04:14:05.495Z,11.70
2017-11-01T04:16:33.213Z,12.27
2017-11-01T04:19:06.332Z,11.45
2017-11-01T04:21:35.371Z,11.70
2017-11-01T04:24:04.150Z,11.38
2017-11-01T04:26:31.788Z,13.43
2017-11-01T04:29:00.199Z,12.73
2017-11-01T04:31:27.940Z,13.38
2017-11-01T04:33:56.452Z,12.30
2017-11-01T04:36:25.155Z,11.68
2017-11-01T04:38:52.880Z,12.02
2017-11-01T04:41:20.624Z,12.13
2017-11-01T04:43:48.571Z,11.30
2017-11-01T04:46:16.505Z,12.13
2017-11-01T04:48:44.376Z,11.85
2017-11-01T04:51:15.976Z,11.88
2017-11-01T04:53:43.829Z,11.85
2017-11-01T04:56:11.727Z,10.88
2017-11-01T04:58:39.984Z,11.43
2017-11-01T05:01:07.801Z,11.85
2017-11-01T05:03:35.479Z,11.45
2017-11-01T05:06:04.303Z,9.88
2017-11-01T05:08:37.612Z,11.35
2017-11-01T05:11:09.463Z,11.23
2017-11-01T05:13:43.767Z,10.40
2017-11-01T05:16:12.966Z,10.65
2017-11-01T05:18:41.422Z,11.40
2017-11-01T05:21:09.278Z,12.40
2017-11-01T05:23:38.075Z,11.80
2017-11-01T05:26:07.913Z,10.75
2017-11-01T05:28:35.670Z,11.93
2017-11-01T05:31:03.806Z,11.63
2017-11-01T05:33:31.589Z,12.20
2017-11-01T05:35:59.483Z,11.70
2017-11-01T05:38:27.177Z,10.95
2017-11-01T05:40:55.975Z,11.70
2017-11-01T05:43:23.844Z,12.60
2017-11-01T05:45:51.699Z,11.68
2017-11-01T05:48:19.586Z,11.12
2017-11-01T05:50:47.404Z,12.18
2017-11-01T05:53:15.534Z,11.82
2017-11-01T05:55:48.818Z,11.35
2017-11-01T05:58:16.694Z,11.48
2017-11-01T06:00:45.593Z,11.18
2017-11-01T06:03:13.390Z,11.12
2017-11-01T06:05:41.024Z,10.30
2017-11-01T06:16:42.452Z,9.82
2017-11-01T06:19:11.949Z,10.98
2017-11-01T06:21:39.808Z,10.20
2017-11-01T06:24:07.463Z,10.77
2017-11-01T06:26:35.460Z,11.68
2017-11-01T06:29:05.880Z,11.27
2017-11-01T06:31:33.496Z,11.30
2017-11-01T06:34:01.353Z,11.10
2017-11-01T06:36:29.071Z,11.10
2017-11-01T06:38:56.913Z,11.32
2017-11-01T06:41:24.687Z,11.82
2017-11-01T06:43:53.323Z,11.23
2017-11-01T06:46:20.942Z,11.20
2017-11-01T06:48:48.728Z,10.57
2017-11-01T06:51:16.455Z,11.65
2017-11-01T06:53:44.223Z,11.07
2017-11-01T06:56:12.635Z,10.80
2017-11-01T06:58:40.449Z,10.93
2017-11-01T07:01:08.235Z,10.55
2017-11-01T07:03:36.004Z,11.15
2017-11-01T07:06:04.842Z,10.80
2017-11-01T07:08:33.061Z,11.43
2017-11-01T07:11:00.838Z,11.20
2017-11-01T07:13:28.545Z,10.77
2017-11-01T07:15:56.202Z,11.27
2017-11-01T07:18:24.709Z,10.90
2017-11-01T07:20:52.428Z,11.77
2017-11-01T07:23:20.116Z,11.50
2017-11-01T07:25:48.780Z,11.65
2017-11-01T07:28:16.597Z,11.43
2017-11-01T07:30:55.260Z,11.35
2017-11-01T07:33:22.954Z,11.50
2017-11-01T07:35:50.653Z,10.98
2017-11-01T07:38:18.528Z,11.43
2017-11-01T07:40:46.265Z,11.90
2017-11-01T07:43:14.344Z,12.18
2017-11-01T07:45:41.888Z,12.52
2017-11-01T07:48:09.390Z,11.77
2017-11-01T07:50:36.993Z,12.40
2017-11-01T07:53:04.595Z,12.50
2017-11-01T07:55:32.111Z,11.87
2017-11-01T07:57:59.810Z,12.30
2017-11-01T08:00:27.395Z,12.10
2017-11-01T08:02:54.903Z,11.87
2017-11-01T08:05:22.536Z,12.35
2017-11-01T08:07:50.177Z,12.95
2017-11-01T08:10:17.777Z,11.18
2017-11-01T08:12:45.318Z,11.47
2017-11-01T08:15:12.927Z,12.77
2017-11-01T08:17:40.667Z,12.30
2017-11-01T08:20:08.328Z,12.37
2017-11-01T08:22:35.926Z,12.90
2017-11-01T08:25:03.521Z,12.20
2017-11-01T08:27:31.120Z,12.27
2017-11-01T08:29:58.735Z,12.57
2017-11-01T08:32:26.299Z,13.10
2017-11-01T08:34:53.915Z,12.70
2017-11-01T08:37:21.528Z,12.50
2017-11-01T08:39:49.122Z,11.40
2017-11-01T08:42:16.722Z,11.73
2017-11-01T08:44:44.319Z,12.90
2017-11-01T08:47:12.062Z,13.53
2017-11-01T08:49:39.918Z,14.20
2017-11-01T08:52:07.569Z,13.13
2017-11-01T08:54:35.265Z,13.07
2017-11-01T08:57:02.938Z,12.13
2017-11-01T08:59:30.523Z,13.63
2017-11-01T09:01:58.544Z,13.67
2017-11-01T09:04:27.156Z,12.33
2017-11-01T09:06:55.110Z,11.20
2017-11-01T09:09:22.722Z,11.80
2017-11-01T09:11:50.342Z,12.07
2017-11-01T09:14:18.106Z,11.63
2017-11-01T09:16:46.020Z,11.87
2017-11-01T09:19:14.279Z,11.13
2017-11-01T09:21:41.876Z,9.97
2017-11-01T09:24:09.458Z,10.23
2017-11-01T09:26:37.137Z,9.67
2017-11-01T09:29:04.746Z,10.33
2017-11-01T09:31:32.364Z,9.40
2017-11-01T09:33:59.938Z,8.77
2017-11-01T09:36:27.502Z,9.77
2017-11-01T09:38:55.091Z,9.00
2017-11-01T09:41:22.911Z,9.60
2017-11-01T09:43:54.133Z,8.90
2017-11-01T09:46:22.203Z,9.40
2017-11-01T09:48:50.845Z,9.20
2017-11-01T09:51:21.693Z,8.17
2017-11-01T09:53:51.548Z,8.13
2017-11-01T09:56:20.010Z,7.50
2017-11-01T09:58:47.998Z,10.50
2017-11-01T10:01:23.310Z,8.63
2017-11-01T10:03:51.006Z,9.50
2017-11-01T10:06:28.621Z,9.37
2017-11-01T10:08:56.217Z,9.10
2017-11-01T10:11:23.817Z,9.07
2017-11-01T10:13:52.558Z,9.40
2017-11-01T10:16:20.147Z,8.67
2017-11-01T10:18:48.349Z,9.20
2017-11-01T10:21:16.046Z,9.53
2017-11-01T10:23:43.867Z,9.40
2017-11-01T10:26:11.534Z,9.47
2017-11-01T10:28:39.856Z,9.20
2017-11-01T10:31:07.912Z,8.80
2017-11-01T10:33:35.952Z,8.83
2017-11-01T10:36:03.746Z,9.00
2017-11-01T10:38:34.215Z,8.50
2017-11-01T10:41:01.863Z,9.30
2017-11-01T10:43:29.508Z,8.70
2017-11-01T10:45:57.037Z,8.87
2017-11-01T10:48:24.650Z,8.83
2017-11-01T10:50:52.204Z,8.63
2017-11-01T10:53:19.805Z,8.97
2017-11-01T10:55:47.463Z,8.93
2017-11-01T10:58:16.088Z,8.63
2017-11-01T11:00:43.782Z,8.97
2017-11-01T11:03:11.953Z,8.57
2017-11-01T11:05:39.542Z,8.93
2017-11-01T11:08:07.087Z,9.60
2017-11-01T11:10:34.647Z,8.50
2017-11-01T11:13:02.201Z,8.13
2017-11-01T11:15:30.520Z,8.43
2017-11-01T11:17:58.807Z,8.73
2017-11-01T11:20:26.390Z,8.63
2017-11-01T11:22:53.946Z,8.93
2017-11-01T11:25:23.612Z,9.27
2017-11-01T11:27:51.244Z,9.70
2017-11-01T11:30:18.815Z,9.17
2017-11-01T11:32:46.401Z,9.80
2017-11-01T11:35:14.082Z,10.40
2017-11-01T11:37:41.709Z,9.35
2017-11-01T11:40:09.367Z,10.80
2017-11-01T11:42:37.011Z,10.10
2017-11-01T11:45:04.624Z,10.80
2017-11-01T11:47:32.246Z,9.93
2017-11-01T11:49:59.914Z,10.13
2017-11-01T11:52:27.848Z,9.70
2017-11-01T11:54:55.684Z,9.57
2017-11-01T11:57:23.334Z,9.40
2017-11-01T11:59:51.284Z,9.97
2017-11-01T12:02:19.136Z,9.32
2017-11-01T12:04:46.862Z,9.80
2017-11-01T12:07:14.927Z,10.67
2017-11-01T12:09:43.980Z,8.97
2017-11-01T12:12:13.597Z,9.33
2017-11-01T12:14:42.777Z,9.17
2017-11-01T12:17:13.571Z,8.93
2017-11-01T12:19:43.594Z,8.63
2017-11-01T12:22:13.008Z,8.80
2017-11-01T12:24:41.485Z,10.07
2017-11-01T12:27:09.516Z,9.10
2017-11-01T12:29:37.243Z,9.40
2017-11-01T12:32:04.880Z,8.40
2017-11-01T12:34:32.745Z,9.57
2017-11-01T12:37:00.714Z,8.57
2017-11-01T12:39:29.423Z,9.20
2017-11-01T12:41:57.521Z,9.47
2017-11-01T12:44:25.235Z,9.10
2017-11-01T12:46:54.429Z,8.83
2017-11-01T12:49:22.647Z,11.70
2017-11-01T12:51:51.499Z,8.40
2017-11-01T12:54:19.916Z,8.10
2017-11-01T12:56:48.944Z,7.97
2017-11-01T12:59:18.079Z,9.77
2017-11-01T13:01:46.630Z,10.40
2017-11-01T13:04:16.011Z,10.17
2017-11-01T13:06:45.468Z,8.50
2017-11-01T13:09:15.417Z,8.70
2017-11-01T13:11:45.351Z,9.10
2017-11-01T13:14:15.272Z,8.53
2017-11-01T13:16:42.930Z,8.60
2017-11-01T13:19:11.183Z,8.00
2017-11-01T13:21:39.182Z,8.50
2017-11-01T13:24:07.080Z,9.00
2017-11-01T13:26:36.025Z,9.37
2017-11-01T13:29:04.702Z,9.50
2017-11-01T13:31:32.750Z,9.53
2017-11-01T13:34:02.293Z,8.63
2017-11-01T13:36:30.130Z,9.20
2017-11-01T13:38:58.892Z,9.20
2017-11-01T13:41:28.270Z,8.90
2017-11-01T13:43:56.177Z,7.60
2017-11-01T13:46:24.248Z,8.27
2017-11-01T13:48:53.209Z,8.67
2017-11-01T13:51:21.846Z,8.63
2017-11-01T13:53:50.032Z,7.97
2017-11-01T13:56:17.805Z,8.27
2017-11-01T13:58:45.402Z,8.00
2017-11-01T14:01:12.996Z,7.60
2017-11-01T14:03:40.569Z,8.30
2017-11-01T14:06:09.170Z,8.93
2017-11-01T14:08:36.749Z,7.97
2017-11-01T14:11:04.305Z,8.20
2017-11-01T14:13:31.862Z,9.77
2017-11-01T14:15:59.471Z,9.57
2017-11-01T14:18:27.276Z,10.20
2017-11-01T14:20:55.219Z,9.80
2017-11-01T14:23:23.571Z,9.67
2017-11-01T14:25:51.107Z,8.50
2017-11-01T14:28:18.745Z,9.20
2017-11-01T14:30:46.358Z,9.77
2017-11-01T14:33:14.098Z,8.63
2017-11-01T14:35:42.339Z,9.47
2017-11-01T14:38:09.900Z,9.20
2017-11-01T14:40:37.550Z,8.30
2017-11-01T14:43:05.088Z,8.43
2017-11-01T14:45:32.888Z,8.27
2017-11-01T14:48:01.439Z,8.10
2017-11-01T14:50:28.984Z,8.03
2017-11-01T14:52:56.559Z,8.10
2017-11-01T14:55:24.137Z,8.00
2017-11-01T14:57:51.817Z,8.30
2017-11-01T15:00:19.369Z,8.03
2017-11-01T15:02:46.949Z,9.20
2017-11-01T15:05:14.547Z,10.10
2017-11-01T15:07:42.110Z,7.87
2017-11-01T15:10:09.694Z,8.20
2017-11-01T15:12:37.272Z,8.10
2017-11-01T15:15:04.910Z,7.50
2017-11-01T15:17:32.489Z,7.87
2017-11-01T15:20:00.073Z,8.17
2017-11-01T15:22:27.904Z,7.90
2017-11-01T15:24:55.521Z,7.63
2017-11-01T15:27:23.841Z,8.27
2017-11-01T15:29:51.400Z,8.80
2017-11-01T15:32:18.971Z,8.80
2017-11-01T15:34:46.568Z,8.47
2017-11-01T15:37:14.124Z,8.40
2017-11-01T15:39:42.140Z,9.40
2017-11-01T15:42:09.814Z,8.70
2017-11-01T15:44:37.811Z,8.43
2017-11-01T15:47:05.444Z,9.10
2017-11-01T15:49:33.079Z,9.07
2017-11-01T15:52:01.196Z,8.97
2017-11-01T15:54:29.207Z,8.33
2017-11-01T15:56:58.021Z,8.60
2017-11-01T15:59:25.967Z,9.47
2017-11-01T16:01:53.574Z,8.90
2017-11-01T16:04:21.340Z,8.37
2017-11-01T16:06:58.986Z,8.53
2017-11-01T16:09:43.065Z,9.30
2017-11-01T16:34:49.694Z,9.33
2017-11-01T16:40:27.369Z,10.37
2017-11-01T16:42:55.080Z,9.30
2017-11-01T16:45:22.892Z,9.30
2017-11-01T16:47:50.864Z,9.87
2017-11-01T16:50:33.336Z,10.37
2017-11-01T16:56:03.685Z,11.97
2017-11-01T17:18:34.940Z,12.13
2017-11-01T17:21:03.407Z,12.00
2017-11-01T17:26:26.557Z,11.07
2017-11-01T17:49:03.804Z,17.10
2017-11-01T17:51:31.497Z,16.47
2017-11-01T17:53:59.522Z,12.07
2017-11-01T17:56:27.065Z,13.57
2017-11-01T17:58:55.260Z,15.07
2017-11-01T18:01:23.272Z,13.57
2017-11-01T18:03:52.525Z,14.83
2017-11-01T18:06:20.934Z,17.67
2017-11-01T18:08:48.521Z,13.87
2017-11-01T18:11:16.238Z,14.70
2017-11-01T18:13:43.790Z,14.90
2017-11-01T18:16:12.271Z,15.63
2017-11-01T18:18:40.619Z,16.60
2017-11-01T18:21:08.195Z,16.60
2017-11-01T18:23:36.892Z,18.57
2017-11-01T18:26:04.470Z,17.20
2017-11-01T18:28:32.122Z,17.33
2017-11-01T18:30:59.723Z,16.47
2017-11-01T18:33:27.343Z,17.40
2017-11-01T18:35:56.542Z,17.33
2017-11-01T18:38:24.387Z,17.73
2017-11-01T18:40:53.076Z,15.80
2017-11-01T18:43:20.848Z,16.40
2017-11-01T18:45:48.427Z,16.60
2017-11-01T18:48:16.050Z,18.60
2017-11-01T18:50:43.883Z,17.10
2017-11-01T18:53:11.817Z,17.33
2017-11-01T18:55:39.479Z,17.63
2017-11-01T18:58:07.051Z,18.53
2017-11-01T19:00:34.676Z,17.50
2017-11-01T19:03:02.258Z,17.93
2017-11-01T19:05:31.250Z,17.20
2017-11-01T19:07:58.875Z,18.60
2017-11-01T19:10:26.492Z,19.50
2017-11-01T19:12:56.797Z,19.50
2017-11-01T19:15:25.886Z,17.70
2017-11-01T19:17:53.443Z,19.40
2017-11-01T19:20:21.302Z,18.37
2017-11-01T19:22:48.854Z,18.57
2017-11-01T19:25:16.400Z,53.83
2017-11-01T19:27:44.255Z,50.00
2017-11-01T19:30:11.834Z,23.10
2017-11-01T19:32:39.409Z,20.60
2017-11-01T19:35:06.968Z,20.03
2017-11-01T19:37:35.429Z,19.90
2017-11-01T19:40:02.981Z,23.23
2017-11-01T19:42:31.279Z,22.97
2017-11-01T19:44:58.855Z,21.73
2017-11-01T19:47:26.429Z,22.90
2017-11-01T19:49:54.075Z,21.80
2017-11-01T19:52:21.688Z,20.87
2017-11-01T19:54:49.244Z,20.13
2017-11-01T19:57:16.842Z,21.03
2017-11-01T19:59:44.502Z,19.73
2017-11-01T20:02:12.019Z,20.20
2017-11-01T20:04:39.694Z,19.63
2017-11-01T20:07:07.230Z,18.90
2017-11-01T20:09:35.885Z,19.23
2017-11-01T20:12:03.492Z,20.63
2017-11-01T20:14:31.104Z,19.47
2017-11-01T20:16:59.146Z,19.00
2017-11-01T20:19:26.749Z,19.07
2017-11-01T20:21:54.552Z,17.77
2017-11-01T20:24:22.468Z,16.27
2017-11-01T20:26:50.222Z,16.87
2017-11-01T20:29:17.953Z,16.80
2017-11-01T20:31:45.636Z,18.17
2017-11-01T20:34:13.204Z,17.20
2017-11-01T20:36:40.765Z,17.80
2017-11-01T20:39:08.744Z,17.63
2017-11-01T20:41:36.412Z,17.70
2017-11-01T20:44:04.937Z,19.30
2017-11-01T20:46:32.643Z,23.13
2017-11-01T20:49:00.268Z,25.30
2017-11-01T20:51:27.917Z,27.17
2017-11-01T20:53:55.600Z,24.00
2017-11-01T20:56:24.149Z,21.30
2017-11-01T20:58:51.708Z,20.33
2017-11-01T21:01:19.314Z,22.50
2017-11-01T21:03:46.987Z,20.93
2017-11-01T21:06:14.659Z,21.57
2017-11-01T21:08:42.878Z,20.80
2017-11-01T21:11:10.680Z,20.00
2017-11-01T21:13:38.343Z,20.40
2017-11-01T21:16:05.880Z,19.97
2017-11-01T21:18:33.553Z,19.57
2017-11-01T21:21:01.267Z,18.90
2017-11-01T21:23:28.901Z,17.63
2017-11-01T21:25:56.503Z,17.43
2017-11-01T21:28:24.814Z,17.67
2017-11-01T21:30:52.410Z,18.07
2017-11-01T21:33:20.136Z,17.50
2017-11-01T21:35:48.312Z,16.00
2017-11-01T21:38:15.839Z,16.70
2017-11-01T21:40:43.482Z,17.10
2017-11-01T21:43:11.121Z,15.10
2017-11-01T21:45:39.747Z,15.77
2017-11-01T21:48:07.371Z,14.63
2017-11-01T21:50:34.974Z,15.47
2017-11-01T21:53:02.685Z,15.20
2017-11-01T21:55:30.278Z,15.73
2017-11-01T21:57:57.838Z,24.50
2017-11-01T22:00:26.416Z,18.73
2017-11-01T22:02:54.001Z,17.63
2017-11-01T22:05:21.694Z,16.63
2017-11-01T22:07:49.300Z,16.80
2017-11-01T22:10:17.875Z,19.13
2017-11-01T22:12:46.010Z,19.80
2017-11-01T22:15:13.586Z,19.10
2017-11-01T22:17:41.149Z,17.70
2017-11-01T22:20:08.732Z,20.33
2017-11-01T22:22:36.293Z,19.27
2017-11-01T22:25:03.927Z,17.10
2017-11-01T22:27:36.960Z,16.43
2017-11-01T22:30:04.890Z,17.50
2017-11-01T22:32:33.685Z,15.20
2017-11-01T22:35:01.301Z,15.30
2017-11-01T22:37:30.233Z,13.20
2017-11-01T22:39:57.879Z,13.87
2017-11-01T22:42:25.489Z,14.03
2017-11-01T22:44:53.368Z,13.43
2017-11-01T22:47:21.380Z,12.30
2017-11-01T22:49:49.446Z,14.30
2017-11-01T22:52:17.137Z,12.80
2017-11-01T22:54:45.818Z,12.70
2017-11-01T22:57:15.494Z,14.30
2017-11-01T22:59:43.172Z,12.83
2017-11-01T23:02:10.716Z,13.50
2017-11-01T23:04:38.467Z,12.70
2017-11-01T23:07:06.165Z,12.60
2017-11-01T23:09:33.962Z,12.30
2017-11-01T23:12:01.704Z,12.20
2017-11-01T23:14:29.394Z,12.70
2017-11-01T23:16:56.969Z,12.50
2017-11-01T23:19:24.644Z,13.00
2017-11-01T23:21:52.433Z,12.40
2017-11-01T23:24:20.098Z,12.83
2017-11-01T23:26:47.677Z,12.50
2017-11-01T23:29:15.689Z,12.90
2017-11-01T23:31:43.292Z,13.17
2017-11-01T23:34:10.851Z,14.20
2017-11-01T23:36:38.466Z,12.80
2017-11-01T23:39:08.893Z,13.03
2017-11-01T23:41:36.487Z,13.20
2017-11-01T23:44:05.562Z,13.50
2017-11-01T23:46:33.134Z,12.70
2017-11-01T23:49:00.733Z,13.10
2017-11-01T23:51:28.262Z,13.33
2017-11-01T23:53:55.780Z,15.07
2017-11-01T23:56:23.403Z,13.53
2017-11-01T23:58:50.957Z,15.03
